sensor_id;sensor_type;location;lat;lon;timestamp;P1;durP1;ratioP1;P2;durP2;ratioP2
47529;SDS011;33272;51.922;7.730;2022-12-29T00:01:59;2.70;;;1.50;;
47529;SDS011;33272;51.922;7.730;2022-12-29T00:04:28;1.97;;;1.77;;
47529;SDS011;33272;51.922;7.730;2022-12-29T00:06:55;3.20;;;2.73;;
47529;SDS011;33272;51.922;7.730;2022-12-29T00:09:22;4.37;;;3.10;;
47529;SDS011;33272;51.922;7.730;2022-12-29T00:11:49;2.30;;;2.10;;
47529;SDS011;33272;51.922;7.730;2022-12-29T00:14:16;2.23;;;1.97;;
47529;SDS011;33272;51.922;7.730;2022-12-29T00:17:10;1.83;;;1.70;;
47529;SDS011;33272;51.922;7.730;2022-12-29T00:19:38;1.83;;;1.67;;
47529;SDS011;33272;51.922;7.730;2022-12-29T00:22:23;2.10;;;1.90;;
47529;SDS011;33272;51.922;7.730;2022-12-29T00:25:09;8.67;;;1.77;;
47529;SDS011;33272;51.922;7.730;2022-12-29T00:28:07;3.37;;;2.60;;
47529;SDS011;33272;51.922;7.730;2022-12-29T00:30:52;3.60;;;2.20;;
47529;SDS011;33272;51.922;7.730;2022-12-29T00:33:36;2.00;;;1.77;;
47529;SDS011;33272;51.922;7.730;2022-12-29T00:36:23;3.27;;;2.03;;
47529;SDS011;33272;51.922;7.730;2022-12-29T00:38:56;3.03;;;1.83;;
47529;SDS011;33272;51.922;7.730;2022-12-29T00:41:45;3.07;;;2.20;;
47529;SDS011;33272;51.922;7.730;2022-12-29T00:44:30;2.70;;;1.80;;
47529;SDS011;33272;51.922;7.730;2022-12-29T00:46:57;1.83;;;1.67;;
47529;SDS011;33272;51.922;7.730;2022-12-29T00:49:28;2.23;;;1.60;;
47529;SDS011;33272;51.922;7.730;2022-12-29T00:51:59;1.70;;;1.30;;
47529;SDS011;33272;51.922;7.730;2022-12-29T00:54:29;1.30;;;1.20;;
47529;SDS011;33272;51.922;7.730;2022-12-29T00:56:58;1.73;;;1.50;;
47529;SDS011;33272;51.922;7.730;2022-12-29T00:59:25;1.77;;;1.40;;
47529;SDS011;33272;51.922;7.730;2022-12-29T01:01:52;2.50;;;1.43;;
47529;SDS011;33272;51.922;7.730;2022-12-29T01:04:21;1.43;;;1.20;;
47529;SDS011;33272;51.922;7.730;2022-12-29T01:06:50;2.37;;;1.57;;
47529;SDS011;33272;51.922;7.730;2022-12-29T01:09:19;3.33;;;1.70;;
47529;SDS011;33272;51.922;7.730;2022-12-29T01:12:04;1.30;;;1.20;;
47529;SDS011;33272;51.922;7.730;2022-12-29T01:14:33;2.00;;;1.47;;
47529;SDS011;33272;51.922;7.730;2022-12-29T01:17:01;1.87;;;1.60;;
47529;SDS011;33272;51.922;7.730;2022-12-29T01:19:29;2.10;;;1.53;;
47529;SDS011;33272;51.922;7.730;2022-12-29T01:21:56;2.50;;;1.40;;
47529;SDS011;33272;51.922;7.730;2022-12-29T01:24:24;1.70;;;1.20;;
47529;SDS011;33272;51.922;7.730;2022-12-29T01:26:52;1.87;;;1.50;;
47529;SDS011;33272;51.922;7.730;2022-12-29T01:29:19;1.20;;;1.10;;
47529;SDS011;33272;51.922;7.730;2022-12-29T01:31:46;1.80;;;1.40;;
47529;SDS011;33272;51.922;7.730;2022-12-29T01:34:14;1.30;;;1.20;;
47529;SDS011;33272;51.922;7.730;2022-12-29T01:36:41;1.47;;;1.37;;
47529;SDS011;33272;51.922;7.730;2022-12-29T01:39:08;1.30;;;1.10;;
47529;SDS011;33272;51.922;7.730;2022-12-29T01:41:36;1.10;;;1.00;;
47529;SDS011;33272;51.922;7.730;2022-12-29T01:47:24;1.13;;;1.03;;
47529;SDS011;33272;51.922;7.730;2022-12-29T01:50:00;2.27;;;1.60;;
47529;SDS011;33272;51.922;7.730;2022-12-29T01:52:33;2.30;;;1.10;;
47529;SDS011;33272;51.922;7.730;2022-12-29T01:55:05;1.60;;;1.17;;
47529;SDS011;33272;51.922;7.730;2022-12-29T01:57:36;1.47;;;1.20;;
47529;SDS011;33272;51.922;7.730;2022-12-29T02:00:07;1.20;;;1.10;;
47529;SDS011;33272;51.922;7.730;2022-12-29T02:02:38;3.00;;;1.80;;
47529;SDS011;33272;51.922;7.730;2022-12-29T02:05:09;1.47;;;1.10;;
47529;SDS011;33272;51.922;7.730;2022-12-29T02:07:42;1.30;;;1.00;;
47529;SDS011;33272;51.922;7.730;2022-12-29T02:10:09;0.90;;;0.90;;
47529;SDS011;33272;51.922;7.730;2022-12-29T02:12:39;2.40;;;1.00;;
47529;SDS011;33272;51.922;7.730;2022-12-29T02:15:07;0.87;;;0.80;;
47529;SDS011;33272;51.922;7.730;2022-12-29T02:17:41;1.07;;;0.90;;
47529;SDS011;33272;51.922;7.730;2022-12-29T02:20:50;0.83;;;0.83;;
47529;SDS011;33272;51.922;7.730;2022-12-29T02:27:22;1.33;;;0.90;;
47529;SDS011;33272;51.922;7.730;2022-12-29T02:30:05;0.90;;;0.90;;
47529;SDS011;33272;51.922;7.730;2022-12-29T02:32:45;1.20;;;0.90;;
47529;SDS011;33272;51.922;7.730;2022-12-29T02:35:23;1.43;;;0.70;;
47529;SDS011;33272;51.922;7.730;2022-12-29T02:38:03;1.13;;;1.03;;
47529;SDS011;33272;51.922;7.730;2022-12-29T02:40:43;0.93;;;0.77;;
47529;SDS011;33272;51.922;7.730;2022-12-29T02:43:21;0.87;;;0.87;;
47529;SDS011;33272;51.922;7.730;2022-12-29T02:45:53;1.43;;;0.77;;
47529;SDS011;33272;51.922;7.730;2022-12-29T02:48:27;0.80;;;0.80;;
47529;SDS011;33272;51.922;7.730;2022-12-29T02:50:59;0.80;;;0.80;;
47529;SDS011;33272;51.922;7.730;2022-12-29T02:53:30;1.10;;;0.70;;
47529;SDS011;33272;51.922;7.730;2022-12-29T02:56:18;1.13;;;0.80;;
47529;SDS011;33272;51.922;7.730;2022-12-29T02:58:45;1.13;;;0.80;;
47529;SDS011;33272;51.922;7.730;2022-12-29T03:01:18;0.70;;;0.70;;
47529;SDS011;33272;51.922;7.730;2022-12-29T03:03:58;0.63;;;0.60;;
47529;SDS011;33272;51.922;7.730;2022-12-29T03:06:42;1.03;;;0.70;;
47529;SDS011;33272;51.922;7.730;2022-12-29T03:09:21;0.70;;;0.70;;
47529;SDS011;33272;51.922;7.730;2022-12-29T03:12:03;0.63;;;0.53;;
47529;SDS011;33272;51.922;7.730;2022-12-29T03:14:52;0.73;;;0.63;;
47529;SDS011;33272;51.922;7.730;2022-12-29T03:17:47;0.83;;;0.60;;
47529;SDS011;33272;51.922;7.730;2022-12-29T03:20:24;1.07;;;0.73;;
47529;SDS011;33272;51.922;7.730;2022-12-29T03:22:58;0.40;;;0.40;;
47529;SDS011;33272;51.922;7.730;2022-12-29T03:25:28;0.73;;;0.60;;
47529;SDS011;33272;51.922;7.730;2022-12-29T03:27:59;0.70;;;0.63;;
47529;SDS011;33272;51.922;7.730;2022-12-29T03:30:32;0.87;;;0.70;;
47529;SDS011;33272;51.922;7.730;2022-12-29T03:33:02;0.90;;;0.60;;
47529;SDS011;33272;51.922;7.730;2022-12-29T03:35:37;0.90;;;0.67;;
47529;SDS011;33272;51.922;7.730;2022-12-29T03:38:08;1.83;;;0.80;;
47529;SDS011;33272;51.922;7.730;2022-12-29T03:40:39;0.90;;;0.70;;
47529;SDS011;33272;51.922;7.730;2022-12-29T03:43:11;1.20;;;0.70;;
47529;SDS011;33272;51.922;7.730;2022-12-29T03:45:39;0.80;;;0.67;;
47529;SDS011;33272;51.922;7.730;2022-12-29T03:48:06;2.20;;;1.23;;
47529;SDS011;33272;51.922;7.730;2022-12-29T03:50:33;0.87;;;0.80;;
47529;SDS011;33272;51.922;7.730;2022-12-29T03:53:01;1.17;;;0.70;;
47529;SDS011;33272;51.922;7.730;2022-12-29T03:55:28;0.93;;;0.70;;
47529;SDS011;33272;51.922;7.730;2022-12-29T03:57:56;1.50;;;0.70;;
47529;SDS011;33272;51.922;7.730;2022-12-29T04:00:23;2.73;;;0.70;;
47529;SDS011;33272;51.922;7.730;2022-12-29T04:02:50;1.60;;;0.80;;
47529;SDS011;33272;51.922;7.730;2022-12-29T04:05:17;1.33;;;0.90;;
47529;SDS011;33272;51.922;7.730;2022-12-29T04:07:44;1.70;;;0.90;;
47529;SDS011;33272;51.922;7.730;2022-12-29T04:10:12;0.90;;;0.90;;
47529;SDS011;33272;51.922;7.730;2022-12-29T04:12:39;1.07;;;0.80;;
47529;SDS011;33272;51.922;7.730;2022-12-29T04:15:08;1.43;;;0.70;;
47529;SDS011;33272;51.922;7.730;2022-12-29T04:17:35;1.20;;;0.60;;
47529;SDS011;33272;51.922;7.730;2022-12-29T04:20:03;1.10;;;1.00;;
47529;SDS011;33272;51.922;7.730;2022-12-29T04:22:48;1.33;;;0.87;;
47529;SDS011;33272;51.922;7.730;2022-12-29T04:25:17;1.90;;;0.97;;
47529;SDS011;33272;51.922;7.730;2022-12-29T04:27:44;1.73;;;0.90;;
47529;SDS011;33272;51.922;7.730;2022-12-29T04:30:11;2.07;;;1.00;;
47529;SDS011;33272;51.922;7.730;2022-12-29T04:32:38;1.47;;;0.77;;
47529;SDS011;33272;51.922;7.730;2022-12-29T04:35:05;1.10;;;1.00;;
47529;SDS011;33272;51.922;7.730;2022-12-29T04:37:33;1.40;;;0.97;;
47529;SDS011;33272;51.922;7.730;2022-12-29T04:40:00;1.83;;;1.00;;
47529;SDS011;33272;51.922;7.730;2022-12-29T04:42:29;2.40;;;1.37;;
47529;SDS011;33272;51.922;7.730;2022-12-29T04:44:56;1.80;;;0.90;;
47529;SDS011;33272;51.922;7.730;2022-12-29T04:47:23;2.10;;;0.90;;
47529;SDS011;33272;51.922;7.730;2022-12-29T04:49:49;1.10;;;1.00;;
47529;SDS011;33272;51.922;7.730;2022-12-29T04:52:16;1.77;;;1.03;;
47529;SDS011;33272;51.922;7.730;2022-12-29T04:54:44;1.43;;;1.00;;
47529;SDS011;33272;51.922;7.730;2022-12-29T04:57:10;1.00;;;0.90;;
47529;SDS011;33272;51.922;7.730;2022-12-29T04:59:39;1.20;;;0.80;;
47529;SDS011;33272;51.922;7.730;2022-12-29T05:02:06;2.03;;;1.00;;
47529;SDS011;33272;51.922;7.730;2022-12-29T05:04:33;1.67;;;1.10;;
47529;SDS011;33272;51.922;7.730;2022-12-29T05:07:00;1.23;;;1.10;;
47529;SDS011;33272;51.922;7.730;2022-12-29T05:09:27;1.47;;;0.80;;
47529;SDS011;33272;51.922;7.730;2022-12-29T05:11:54;1.10;;;1.00;;
47529;SDS011;33272;51.922;7.730;2022-12-29T05:14:21;1.27;;;1.17;;
47529;SDS011;33272;51.922;7.730;2022-12-29T05:16:50;1.23;;;0.97;;
47529;SDS011;33272;51.922;7.730;2022-12-29T05:19:17;2.43;;;1.07;;
47529;SDS011;33272;51.922;7.730;2022-12-29T05:21:44;2.27;;;1.00;;
47529;SDS011;33272;51.922;7.730;2022-12-29T05:24:11;0.90;;;0.90;;
47529;SDS011;33272;51.922;7.730;2022-12-29T05:26:38;5.77;;;1.03;;
47529;SDS011;33272;51.922;7.730;2022-12-29T05:29:05;3.53;;;0.80;;
47529;SDS011;33272;51.922;7.730;2022-12-29T05:31:32;1.77;;;0.90;;
47529;SDS011;33272;51.922;7.730;2022-12-29T05:34:01;0.80;;;0.60;;
47529;SDS011;33272;51.922;7.730;2022-12-29T05:36:29;1.50;;;0.70;;
47529;SDS011;33272;51.922;7.730;2022-12-29T05:38:56;2.43;;;0.93;;
47529;SDS011;33272;51.922;7.730;2022-12-29T05:41:23;0.93;;;0.50;;
47529;SDS011;33272;51.922;7.730;2022-12-29T05:43:50;1.40;;;0.70;;
47529;SDS011;33272;51.922;7.730;2022-12-29T05:46:17;1.60;;;0.60;;
47529;SDS011;33272;51.922;7.730;2022-12-29T05:48:44;0.97;;;0.60;;
47529;SDS011;33272;51.922;7.730;2022-12-29T05:51:12;1.50;;;0.67;;
47529;SDS011;33272;51.922;7.730;2022-12-29T05:53:39;0.73;;;0.53;;
47529;SDS011;33272;51.922;7.730;2022-12-29T05:56:06;2.53;;;0.80;;
47529;SDS011;33272;51.922;7.730;2022-12-29T05:58:33;1.70;;;1.13;;
47529;SDS011;33272;51.922;7.730;2022-12-29T06:01:00;1.40;;;0.70;;
47529;SDS011;33272;51.922;7.730;2022-12-29T06:03:27;1.33;;;0.70;;
47529;SDS011;33272;51.922;7.730;2022-12-29T06:05:54;1.83;;;0.97;;
47529;SDS011;33272;51.922;7.730;2022-12-29T06:08:23;0.93;;;0.50;;
47529;SDS011;33272;51.922;7.730;2022-12-29T06:10:50;1.63;;;0.50;;
47529;SDS011;33272;51.922;7.730;2022-12-29T06:13:17;0.57;;;0.47;;
47529;SDS011;33272;51.922;7.730;2022-12-29T06:15:44;2.50;;;0.70;;
47529;SDS011;33272;51.922;7.730;2022-12-29T06:18:11;1.50;;;0.80;;
47529;SDS011;33272;51.922;7.730;2022-12-29T06:20:38;1.10;;;0.90;;
47529;SDS011;33272;51.922;7.730;2022-12-29T06:23:05;1.97;;;1.27;;
47529;SDS011;33272;51.922;7.730;2022-12-29T06:25:33;3.20;;;1.00;;
47529;SDS011;33272;51.922;7.730;2022-12-29T06:28:00;2.60;;;0.83;;
47529;SDS011;33272;51.922;7.730;2022-12-29T06:30:28;2.13;;;0.83;;
47529;SDS011;33272;51.922;7.730;2022-12-29T06:32:55;1.67;;;0.80;;
47529;SDS011;33272;51.922;7.730;2022-12-29T06:35:22;1.73;;;0.90;;
47529;SDS011;33272;51.922;7.730;2022-12-29T06:37:49;1.40;;;1.10;;
47529;SDS011;33272;51.922;7.730;2022-12-29T06:40:16;1.20;;;1.00;;
47529;SDS011;33272;51.922;7.730;2022-12-29T06:42:45;1.17;;;0.80;;
47529;SDS011;33272;51.922;7.730;2022-12-29T06:45:12;2.23;;;1.20;;
47529;SDS011;33272;51.922;7.730;2022-12-29T06:47:39;2.20;;;0.90;;
47529;SDS011;33272;51.922;7.730;2022-12-29T06:50:06;2.03;;;1.10;;
47529;SDS011;33272;51.922;7.730;2022-12-29T06:52:34;1.30;;;0.90;;
47529;SDS011;33272;51.922;7.730;2022-12-29T06:55:01;2.27;;;1.27;;
47529;SDS011;33272;51.922;7.730;2022-12-29T06:57:28;2.53;;;1.20;;
47529;SDS011;33272;51.922;7.730;2022-12-29T06:59:56;1.17;;;0.90;;
47529;SDS011;33272;51.922;7.730;2022-12-29T07:02:23;4.13;;;1.20;;
47529;SDS011;33272;51.922;7.730;2022-12-29T07:04:51;3.40;;;1.13;;
47529;SDS011;33272;51.922;7.730;2022-12-29T07:07:18;1.50;;;0.90;;
47529;SDS011;33272;51.922;7.730;2022-12-29T07:09:45;2.37;;;1.40;;
47529;SDS011;33272;51.922;7.730;2022-12-29T07:12:12;4.33;;;1.30;;
47529;SDS011;33272;51.922;7.730;2022-12-29T07:14:39;2.00;;;1.07;;
47529;SDS011;33272;51.922;7.730;2022-12-29T07:17:08;2.53;;;1.00;;
47529;SDS011;33272;51.922;7.730;2022-12-29T07:19:35;2.60;;;0.80;;
47529;SDS011;33272;51.922;7.730;2022-12-29T07:22:02;3.37;;;1.10;;
47529;SDS011;33272;51.922;7.730;2022-12-29T07:24:29;3.50;;;1.07;;
47529;SDS011;33272;51.922;7.730;2022-12-29T07:26:56;1.27;;;1.00;;
47529;SDS011;33272;51.922;7.730;2022-12-29T07:29:23;3.17;;;1.03;;
47529;SDS011;33272;51.922;7.730;2022-12-29T07:31:49;3.83;;;1.37;;
47529;SDS011;33272;51.922;7.730;2022-12-29T07:34:18;3.10;;;1.00;;
47529;SDS011;33272;51.922;7.730;2022-12-29T07:36:45;3.13;;;1.10;;
47529;SDS011;33272;51.922;7.730;2022-12-29T07:39:12;3.53;;;1.37;;
47529;SDS011;33272;51.922;7.730;2022-12-29T07:41:39;2.67;;;1.10;;
47529;SDS011;33272;51.922;7.730;2022-12-29T07:44:08;1.37;;;0.80;;
47529;SDS011;33272;51.922;7.730;2022-12-29T07:46:35;3.67;;;1.33;;
47529;SDS011;33272;51.922;7.730;2022-12-29T07:49:02;2.50;;;1.20;;
47529;SDS011;33272;51.922;7.730;2022-12-29T07:51:30;4.77;;;1.20;;
47529;SDS011;33272;51.922;7.730;2022-12-29T07:53:57;1.60;;;0.90;;
47529;SDS011;33272;51.922;7.730;2022-12-29T07:56:25;2.63;;;1.23;;
47529;SDS011;33272;51.922;7.730;2022-12-29T07:58:52;2.07;;;0.90;;
47529;SDS011;33272;51.922;7.730;2022-12-29T08:01:19;2.90;;;1.27;;
47529;SDS011;33272;51.922;7.730;2022-12-29T08:03:48;1.87;;;1.03;;
47529;SDS011;33272;51.922;7.730;2022-12-29T08:06:15;2.27;;;1.03;;
47529;SDS011;33272;51.922;7.730;2022-12-29T08:08:44;2.70;;;1.17;;
47529;SDS011;33272;51.922;7.730;2022-12-29T08:11:12;3.30;;;1.10;;
47529;SDS011;33272;51.922;7.730;2022-12-29T08:13:39;5.37;;;1.57;;
47529;SDS011;33272;51.922;7.730;2022-12-29T08:16:06;1.93;;;1.00;;
47529;SDS011;33272;51.922;7.730;2022-12-29T08:18:32;1.73;;;1.00;;
47529;SDS011;33272;51.922;7.730;2022-12-29T08:21:01;3.90;;;1.20;;
47529;SDS011;33272;51.922;7.730;2022-12-29T08:23:29;3.73;;;1.20;;
47529;SDS011;33272;51.922;7.730;2022-12-29T08:25:58;1.87;;;1.10;;
47529;SDS011;33272;51.922;7.730;2022-12-29T08:28:25;2.80;;;1.30;;
47529;SDS011;33272;51.922;7.730;2022-12-29T08:30:53;3.10;;;1.30;;
47529;SDS011;33272;51.922;7.730;2022-12-29T08:33:23;3.93;;;1.40;;
47529;SDS011;33272;51.922;7.730;2022-12-29T08:35:51;2.67;;;1.53;;
47529;SDS011;33272;51.922;7.730;2022-12-29T08:38:18;4.00;;;1.33;;
47529;SDS011;33272;51.922;7.730;2022-12-29T08:40:45;3.07;;;1.30;;
47529;SDS011;33272;51.922;7.730;2022-12-29T08:43:13;4.03;;;1.40;;
47529;SDS011;33272;51.922;7.730;2022-12-29T08:45:40;2.53;;;1.77;;
47529;SDS011;33272;51.922;7.730;2022-12-29T08:48:07;4.20;;;1.47;;
47529;SDS011;33272;51.922;7.730;2022-12-29T08:50:34;3.90;;;1.73;;
47529;SDS011;33272;51.922;7.730;2022-12-29T08:53:01;2.50;;;1.20;;
47529;SDS011;33272;51.922;7.730;2022-12-29T08:55:28;3.13;;;1.23;;
47529;SDS011;33272;51.922;7.730;2022-12-29T08:57:55;4.80;;;1.70;;
47529;SDS011;33272;51.922;7.730;2022-12-29T09:00:23;4.43;;;1.27;;
47529;SDS011;33272;51.922;7.730;2022-12-29T09:02:50;2.13;;;1.00;;
47529;SDS011;33272;51.922;7.730;2022-12-29T09:05:18;4.60;;;1.50;;
47529;SDS011;33272;51.922;7.730;2022-12-29T09:07:45;4.70;;;1.83;;
47529;SDS011;33272;51.922;7.730;2022-12-29T09:10:12;4.13;;;1.67;;
47529;SDS011;33272;51.922;7.730;2022-12-29T09:12:39;3.50;;;1.43;;
47529;SDS011;33272;51.922;7.730;2022-12-29T09:15:06;4.60;;;1.77;;
47529;SDS011;33272;51.922;7.730;2022-12-29T09:17:36;4.23;;;1.30;;
47529;SDS011;33272;51.922;7.730;2022-12-29T09:20:10;2.50;;;1.47;;
47529;SDS011;33272;51.922;7.730;2022-12-29T09:22:38;4.17;;;1.70;;
47529;SDS011;33272;51.922;7.730;2022-12-29T09:25:05;3.57;;;1.50;;
47529;SDS011;33272;51.922;7.730;2022-12-29T09:27:34;5.50;;;2.00;;
47529;SDS011;33272;51.922;7.730;2022-12-29T09:30:02;4.67;;;1.83;;
47529;SDS011;33272;51.922;7.730;2022-12-29T09:32:30;3.37;;;1.43;;
47529;SDS011;33272;51.922;7.730;2022-12-29T09:34:59;4.27;;;1.33;;
47529;SDS011;33272;51.922;7.730;2022-12-29T09:37:26;2.87;;;1.27;;
47529;SDS011;33272;51.922;7.730;2022-12-29T09:39:53;3.67;;;1.67;;
47529;SDS011;33272;51.922;7.730;2022-12-29T09:42:22;6.10;;;1.93;;
47529;SDS011;33272;51.922;7.730;2022-12-29T09:44:59;4.00;;;1.40;;
47529;SDS011;33272;51.922;7.730;2022-12-29T09:47:40;5.20;;;1.70;;
47529;SDS011;33272;51.922;7.730;2022-12-29T09:50:12;4.37;;;1.40;;
47529;SDS011;33272;51.922;7.730;2022-12-29T09:52:50;6.70;;;1.97;;
47529;SDS011;33272;51.922;7.730;2022-12-29T09:55:26;3.70;;;1.47;;
47529;SDS011;33272;51.922;7.730;2022-12-29T09:58:02;4.67;;;1.87;;
47529;SDS011;33272;51.922;7.730;2022-12-29T10:00:36;4.37;;;1.50;;
47529;SDS011;33272;51.922;7.730;2022-12-29T10:03:10;5.23;;;1.47;;
47529;SDS011;33272;51.922;7.730;2022-12-29T10:05:45;4.20;;;1.73;;
47529;SDS011;33272;51.922;7.730;2022-12-29T10:08:20;5.33;;;1.50;;
47529;SDS011;33272;51.922;7.730;2022-12-29T10:10:59;3.13;;;1.80;;
47529;SDS011;33272;51.922;7.730;2022-12-29T10:13:43;4.07;;;1.47;;
47529;SDS011;33272;51.922;7.730;2022-12-29T10:16:30;3.37;;;1.40;;
47529;SDS011;33272;51.922;7.730;2022-12-29T10:19:11;5.23;;;1.63;;
47529;SDS011;33272;51.922;7.730;2022-12-29T10:22:12;4.23;;;1.70;;
47529;SDS011;33272;51.922;7.730;2022-12-29T10:24:55;5.33;;;1.83;;
47529;SDS011;33272;51.922;7.730;2022-12-29T10:27:22;7.00;;;1.83;;
47529;SDS011;33272;51.922;7.730;2022-12-29T10:29:52;5.10;;;1.40;;
47529;SDS011;33272;51.922;7.730;2022-12-29T10:32:24;3.50;;;1.77;;
47529;SDS011;33272;51.922;7.730;2022-12-29T10:34:58;4.40;;;1.60;;
47529;SDS011;33272;51.922;7.730;2022-12-29T10:37:41;4.07;;;2.00;;
47529;SDS011;33272;51.922;7.730;2022-12-29T10:40:17;4.27;;;1.77;;
47529;SDS011;33272;51.922;7.730;2022-12-29T10:42:52;3.80;;;1.70;;
47529;SDS011;33272;51.922;7.730;2022-12-29T10:45:21;4.10;;;1.80;;
47529;SDS011;33272;51.922;7.730;2022-12-29T10:47:53;2.17;;;1.50;;
47529;SDS011;33272;51.922;7.730;2022-12-29T10:50:25;3.67;;;1.57;;
47529;SDS011;33272;51.922;7.730;2022-12-29T10:52:56;3.13;;;1.30;;
47529;SDS011;33272;51.922;7.730;2022-12-29T10:55:27;4.47;;;2.10;;
47529;SDS011;33272;51.922;7.730;2022-12-29T10:57:59;6.37;;;1.70;;
47529;SDS011;33272;51.922;7.730;2022-12-29T11:00:30;4.73;;;1.53;;
47529;SDS011;33272;51.922;7.730;2022-12-29T11:03:08;4.10;;;1.93;;
47529;SDS011;33272;51.922;7.730;2022-12-29T11:06:12;2.97;;;1.47;;
47529;SDS011;33272;51.922;7.730;2022-12-29T11:08:51;4.90;;;2.03;;
47529;SDS011;33272;51.922;7.730;2022-12-29T11:11:23;2.80;;;1.30;;
47529;SDS011;33272;51.922;7.730;2022-12-29T11:13:56;3.80;;;1.73;;
47529;SDS011;33272;51.922;7.730;2022-12-29T11:16:29;4.57;;;1.40;;
47529;SDS011;33272;51.922;7.730;2022-12-29T11:18:59;5.43;;;2.07;;
47529;SDS011;33272;51.922;7.730;2022-12-29T11:21:30;3.00;;;1.37;;
47529;SDS011;33272;51.922;7.730;2022-12-29T11:24:18;2.67;;;1.40;;
47529;SDS011;33272;51.922;7.730;2022-12-29T11:26:49;4.57;;;1.77;;
47529;SDS011;33272;51.922;7.730;2022-12-29T11:29:23;4.20;;;1.33;;
47529;SDS011;33272;51.922;7.730;2022-12-29T11:31:54;3.30;;;1.30;;
47529;SDS011;33272;51.922;7.730;2022-12-29T11:34:24;5.60;;;1.30;;
47529;SDS011;33272;51.922;7.730;2022-12-29T11:36:53;4.67;;;1.50;;
47529;SDS011;33272;51.922;7.730;2022-12-29T11:39:35;4.10;;;1.70;;
47529;SDS011;33272;51.922;7.730;2022-12-29T11:42:11;4.83;;;1.90;;
47529;SDS011;33272;51.922;7.730;2022-12-29T11:44:42;4.97;;;1.63;;
47529;SDS011;33272;51.922;7.730;2022-12-29T11:47:13;6.53;;;1.73;;
47529;SDS011;33272;51.922;7.730;2022-12-29T11:49:52;4.97;;;1.50;;
47529;SDS011;33272;51.922;7.730;2022-12-29T11:52:22;3.90;;;1.37;;
47529;SDS011;33272;51.922;7.730;2022-12-29T11:54:54;3.27;;;1.33;;
47529;SDS011;33272;51.922;7.730;2022-12-29T11:57:22;3.70;;;1.33;;
47529;SDS011;33272;51.922;7.730;2022-12-29T11:59:52;8.27;;;2.03;;
47529;SDS011;33272;51.922;7.730;2022-12-29T12:02:35;7.50;;;1.77;;
47529;SDS011;33272;51.922;7.730;2022-12-29T12:05:12;6.13;;;1.70;;
47529;SDS011;33272;51.922;7.730;2022-12-29T12:07:49;5.57;;;1.50;;
47529;SDS011;33272;51.922;7.730;2022-12-29T12:10:25;4.27;;;1.57;;
47529;SDS011;33272;51.922;7.730;2022-12-29T12:13:07;6.03;;;1.83;;
47529;SDS011;33272;51.922;7.730;2022-12-29T12:15:46;6.63;;;1.80;;
47529;SDS011;33272;51.922;7.730;2022-12-29T12:18:23;5.83;;;1.90;;
47529;SDS011;33272;51.922;7.730;2022-12-29T12:21:04;5.17;;;1.70;;
47529;SDS011;33272;51.922;7.730;2022-12-29T12:23:43;5.90;;;2.23;;
47529;SDS011;33272;51.922;7.730;2022-12-29T12:26:32;5.17;;;2.07;;
47529;SDS011;33272;51.922;7.730;2022-12-29T12:29:07;4.73;;;1.67;;
47529;SDS011;33272;51.922;7.730;2022-12-29T12:31:43;3.83;;;1.77;;
47529;SDS011;33272;51.922;7.730;2022-12-29T12:34:17;4.50;;;1.63;;
47529;SDS011;33272;51.922;7.730;2022-12-29T12:36:54;5.87;;;2.30;;
47529;SDS011;33272;51.922;7.730;2022-12-29T12:39:39;6.40;;;1.60;;
47529;SDS011;33272;51.922;7.730;2022-12-29T12:42:24;3.63;;;1.83;;
47529;SDS011;33272;51.922;7.730;2022-12-29T12:45:15;4.70;;;2.00;;
47529;SDS011;33272;51.922;7.730;2022-12-29T12:48:13;4.13;;;1.87;;
47529;SDS011;33272;51.922;7.730;2022-12-29T12:51:12;3.13;;;1.30;;
47529;SDS011;33272;51.922;7.730;2022-12-29T12:53:50;4.00;;;1.53;;
47529;SDS011;33272;51.922;7.730;2022-12-29T12:59:38;5.47;;;1.70;;
47529;SDS011;33272;51.922;7.730;2022-12-29T13:02:30;3.13;;;1.20;;
47529;SDS011;33272;51.922;7.730;2022-12-29T13:08:19;4.53;;;1.57;;
47529;SDS011;33272;51.922;7.730;2022-12-29T13:11:13;4.90;;;1.70;;
47529;SDS011;33272;51.922;7.730;2022-12-29T13:13:51;5.63;;;1.73;;
47529;SDS011;33272;51.922;7.730;2022-12-29T13:16:39;5.57;;;2.23;;
47529;SDS011;33272;51.922;7.730;2022-12-29T13:19:13;5.90;;;1.60;;
47529;SDS011;33272;51.922;7.730;2022-12-29T13:21:54;4.83;;;1.83;;
47529;SDS011;33272;51.922;7.730;2022-12-29T13:24:33;5.97;;;1.50;;
47529;SDS011;33272;51.922;7.730;2022-12-29T13:27:20;4.57;;;1.63;;
47529;SDS011;33272;51.922;7.730;2022-12-29T13:29:57;5.30;;;1.80;;
47529;SDS011;33272;51.922;7.730;2022-12-29T13:32:34;4.70;;;1.87;;
47529;SDS011;33272;51.922;7.730;2022-12-29T13:35:22;4.27;;;1.80;;
47529;SDS011;33272;51.922;7.730;2022-12-29T13:38:08;6.57;;;1.90;;
47529;SDS011;33272;51.922;7.730;2022-12-29T13:40:39;4.67;;;1.43;;
47529;SDS011;33272;51.922;7.730;2022-12-29T13:43:13;4.23;;;1.60;;
47529;SDS011;33272;51.922;7.730;2022-12-29T13:45:42;5.60;;;2.03;;
47529;SDS011;33272;51.922;7.730;2022-12-29T13:48:13;5.73;;;1.90;;
47529;SDS011;33272;51.922;7.730;2022-12-29T13:50:47;6.03;;;1.97;;
47529;SDS011;33272;51.922;7.730;2022-12-29T13:53:19;3.20;;;1.67;;
47529;SDS011;33272;51.922;7.730;2022-12-29T13:55:57;2.57;;;1.33;;
47529;SDS011;33272;51.922;7.730;2022-12-29T13:58:31;3.47;;;1.67;;
47529;SDS011;33272;51.922;7.730;2022-12-29T14:01:08;5.70;;;1.60;;
47529;SDS011;33272;51.922;7.730;2022-12-29T14:03:46;6.73;;;2.00;;
47529;SDS011;33272;51.922;7.730;2022-12-29T14:06:16;5.87;;;1.90;;
47529;SDS011;33272;51.922;7.730;2022-12-29T14:08:49;8.20;;;1.90;;
47529;SDS011;33272;51.922;7.730;2022-12-29T14:11:21;5.60;;;2.30;;
47529;SDS011;33272;51.922;7.730;2022-12-29T14:13:55;7.07;;;1.40;;
47529;SDS011;33272;51.922;7.730;2022-12-29T14:16:27;3.77;;;1.90;;
47529;SDS011;33272;51.922;7.730;2022-12-29T14:19:03;4.07;;;2.00;;
47529;SDS011;33272;51.922;7.730;2022-12-29T14:21:38;3.77;;;1.53;;
47529;SDS011;33272;51.922;7.730;2022-12-29T14:30:47;5.37;;;2.10;;
47529;SDS011;33272;51.922;7.730;2022-12-29T14:33:19;4.10;;;1.60;;
47529;SDS011;33272;51.922;7.730;2022-12-29T14:35:50;6.07;;;2.00;;
47529;SDS011;33272;51.922;7.730;2022-12-29T14:41:15;4.97;;;2.33;;
47529;SDS011;33272;51.922;7.730;2022-12-29T14:43:56;5.73;;;1.70;;
47529;SDS011;33272;51.922;7.730;2022-12-29T14:46:41;4.47;;;1.70;;
47529;SDS011;33272;51.922;7.730;2022-12-29T14:49:19;3.17;;;1.50;;
47529;SDS011;33272;51.922;7.730;2022-12-29T14:51:51;3.67;;;1.87;;
47529;SDS011;33272;51.922;7.730;2022-12-29T14:57:26;7.63;;;2.10;;
47529;SDS011;33272;51.922;7.730;2022-12-29T15:00:00;5.20;;;2.30;;
47529;SDS011;33272;51.922;7.730;2022-12-29T15:02:44;6.23;;;1.90;;
47529;SDS011;33272;51.922;7.730;2022-12-29T15:08:12;4.13;;;1.80;;
47529;SDS011;33272;51.922;7.730;2022-12-29T15:10:44;4.27;;;1.40;;
47529;SDS011;33272;51.922;7.730;2022-12-29T15:13:21;4.37;;;1.73;;
47529;SDS011;33272;51.922;7.730;2022-12-29T15:15:51;6.87;;;2.13;;
47529;SDS011;33272;51.922;7.730;2022-12-29T15:18:22;3.13;;;1.70;;
47529;SDS011;33272;51.922;7.730;2022-12-29T15:20:53;6.40;;;1.93;;
47529;SDS011;33272;51.922;7.730;2022-12-29T15:23:24;3.47;;;1.70;;
47529;SDS011;33272;51.922;7.730;2022-12-29T15:25:54;4.73;;;1.63;;
47529;SDS011;33272;51.922;7.730;2022-12-29T15:28:23;7.03;;;1.90;;
47529;SDS011;33272;51.922;7.730;2022-12-29T15:30:52;3.17;;;1.53;;
47529;SDS011;33272;51.922;7.730;2022-12-29T15:33:21;6.10;;;1.83;;
47529;SDS011;33272;51.922;7.730;2022-12-29T15:35:52;5.77;;;1.80;;
47529;SDS011;33272;51.922;7.730;2022-12-29T15:38:22;6.83;;;2.27;;
47529;SDS011;33272;51.922;7.730;2022-12-29T15:40:56;3.47;;;1.83;;
47529;SDS011;33272;51.922;7.730;2022-12-29T15:46:20;6.60;;;2.23;;
47529;SDS011;33272;51.922;7.730;2022-12-29T15:48:47;4.57;;;1.60;;
47529;SDS011;33272;51.922;7.730;2022-12-29T15:51:16;8.27;;;2.33;;